createdAt,value
2024-02-02T00:00:46.546Z,600.00
2024-02-02T00:01:46.499Z,603.00
2024-02-02T00:02:46.581Z,600.00
2024-02-02T00:03:46.543Z,601.00
2024-02-02T00:04:46.487Z,606.00
2024-02-02T00:05:46.517Z,604.00
2024-02-02T00:06:46.558Z,605.00
2024-02-02T00:07:46.504Z,603.00
2024-02-02T00:08:46.522Z,601.00
2024-02-02T00:09:46.511Z,606.00
2024-02-02T00:10:46.499Z,605.00
2024-02-02T00:11:46.595Z,602.00
2024-02-02T00:12:46.507Z,600.00
2024-02-02T00:13:46.509Z,605.00
2024-02-02T00:14:46.556Z,603.00
2024-02-02T00:15:46.510Z,602.00
2024-02-02T00:16:46.511Z,606.00
2024-02-02T00:17:46.540Z,608.00
2024-02-02T00:18:46.661Z,603.00
2024-02-02T00:19:46.565Z,605.00
2024-02-02T00:20:46.578Z,602.00
2024-02-02T00:21:46.513Z,602.00
2024-02-02T00:22:46.526Z,607.00
2024-02-02T00:23:46.571Z,607.00
2024-02-02T00:24:46.531Z,602.00
2024-02-02T00:25:46.525Z,607.00
2024-02-02T00:26:46.584Z,605.00
2024-02-02T00:27:46.534Z,603.00
2024-02-02T00:28:46.516Z,603.00
2024-02-02T00:29:46.585Z,602.00
2024-02-02T00:30:46.532Z,602.00
2024-02-02T00:31:46.556Z,604.00
2024-02-02T00:32:46.731Z,606.00
2024-02-02T00:33:46.601Z,605.00
2024-02-02T00:34:46.754Z,606.00
2024-02-02T00:35:46.609Z,605.00
2024-02-02T00:36:46.557Z,609.00
2024-02-02T00:37:46.543Z,603.00
2024-02-02T00:38:46.671Z,604.00
2024-02-02T00:39:46.551Z,607.00
2024-02-02T00:40:46.556Z,604.00
2024-02-02T00:41:46.552Z,607.00
2024-02-02T00:42:46.578Z,606.00
2024-02-02T00:43:46.566Z,603.00
2024-02-02T00:44:46.566Z,602.00
2024-02-02T00:45:46.568Z,603.00
2024-02-02T00:46:46.557Z,603.00
2024-02-02T00:47:46.649Z,609.00
2024-02-02T00:48:46.604Z,604.00
2024-02-02T00:49:46.840Z,603.00
2024-02-02T00:50:46.569Z,605.00
2024-02-02T00:51:46.557Z,603.00
2024-02-02T00:52:46.618Z,606.00
2024-02-02T00:53:46.588Z,602.00
2024-02-02T00:54:46.566Z,606.00
2024-02-02T00:55:46.565Z,606.00
2024-02-02T00:56:46.631Z,603.00
2024-02-02T00:57:46.594Z,606.00
2024-02-02T00:58:46.577Z,601.00
2024-02-02T00:59:46.576Z,603.00
2024-02-02T01:00:46.641Z,604.00
2024-02-02T01:01:46.583Z,602.00
2024-02-02T01:02:46.609Z,606.00
2024-02-02T01:03:46.688Z,604.00
2024-02-02T01:04:46.693Z,604.00
2024-02-02T01:05:46.641Z,605.00
2024-02-02T01:06:46.696Z,603.00
2024-02-02T01:07:46.593Z,605.00
2024-02-02T01:08:46.613Z,603.00
2024-02-02T01:09:46.611Z,600.00
2024-02-02T01:10:46.574Z,603.00
2024-02-02T01:11:46.580Z,604.00
2024-02-02T01:12:46.596Z,601.00
2024-02-02T01:13:46.579Z,606.00
2024-02-02T01:14:46.580Z,606.00
2024-02-02T01:15:46.583Z,603.00
2024-02-02T01:16:46.584Z,605.00
2024-02-02T01:17:46.712Z,603.00
2024-02-02T01:18:46.692Z,605.00
2024-02-02T01:19:46.637Z,603.00
2024-02-02T01:20:46.587Z,604.00
2024-02-02T01:21:46.597Z,607.00
2024-02-02T01:22:46.598Z,605.00
2024-02-02T01:23:46.593Z,603.00
2024-02-02T01:24:46.594Z,607.00
2024-02-02T01:25:46.610Z,602.00
2024-02-02T01:26:46.611Z,603.00
2024-02-02T01:27:46.672Z,600.00
2024-02-02T01:28:46.608Z,600.00
2024-02-02T01:29:46.615Z,603.00
2024-02-02T01:30:46.609Z,602.00
2024-02-02T01:31:46.616Z,602.00
2024-02-02T01:32:46.625Z,607.00
2024-02-02T01:33:46.765Z,608.00
2024-02-02T01:34:46.706Z,605.00
2024-02-02T01:35:46.606Z,607.00
2024-02-02T01:36:46.612Z,605.00
2024-02-02T01:37:46.629Z,607.00
2024-02-02T01:38:46.617Z,608.00
2024-02-02T01:39:46.612Z,605.00
2024-02-02T01:40:46.616Z,602.00
2024-02-02T01:41:46.614Z,605.00
2024-02-02T01:42:47.072Z,607.00
2024-02-02T01:43:46.626Z,606.00
2024-02-02T01:44:46.616Z,608.00
2024-02-02T01:45:46.626Z,610.00
2024-02-02T01:46:46.631Z,610.00
2024-02-02T01:47:46.687Z,607.00
2024-02-02T01:48:46.678Z,608.00
2024-02-02T01:49:46.789Z,607.00
2024-02-02T01:50:46.637Z,605.00
2024-02-02T01:51:46.614Z,605.00
2024-02-02T01:52:46.629Z,604.00
2024-02-02T01:53:46.631Z,606.00
2024-02-02T01:54:46.620Z,606.00
2024-02-02T01:55:46.637Z,603.00
2024-02-02T01:56:46.630Z,604.00
2024-02-02T01:57:46.623Z,600.00
2024-02-02T01:58:46.621Z,606.00
2024-02-02T01:59:46.634Z,605.00
2024-02-02T02:00:46.803Z,604.00
2024-02-02T02:01:46.649Z,605.00
2024-02-02T02:02:46.654Z,606.00
2024-02-02T02:03:46.879Z,606.00
2024-02-02T02:04:46.637Z,606.00
2024-02-02T02:05:46.699Z,604.00
2024-02-02T02:06:46.682Z,605.00
2024-02-02T02:07:46.643Z,605.00
2024-02-02T02:08:46.647Z,603.00
2024-02-02T02:09:46.663Z,608.00
2024-02-02T02:10:46.662Z,603.00
2024-02-02T02:11:46.677Z,602.00
2024-02-02T02:12:46.706Z,602.00
2024-02-02T02:13:46.731Z,603.00
2024-02-02T02:14:46.741Z,603.00
2024-02-02T02:15:46.750Z,606.00
2024-02-02T02:16:46.843Z,603.00
2024-02-02T02:17:46.848Z,602.00
2024-02-02T02:18:53.063Z,605.00
2024-02-02T02:19:47.904Z,605.00
2024-02-02T02:20:46.816Z,605.00
2024-02-02T02:21:46.824Z,606.00
2024-02-02T02:22:46.819Z,604.00
2024-02-02T02:23:46.818Z,602.00
2024-02-02T02:24:46.823Z,603.00
2024-02-02T02:25:46.826Z,602.00
2024-02-02T02:26:46.827Z,602.00
2024-02-02T02:27:46.846Z,606.00
2024-02-02T02:28:46.836Z,606.00
2024-02-02T02:29:46.836Z,605.00
2024-02-02T02:30:46.855Z,606.00
2024-02-02T02:31:46.874Z,607.00
2024-02-02T02:32:46.919Z,604.00
2024-02-02T02:33:47.037Z,601.00
2024-02-02T02:34:46.899Z,608.00
2024-02-02T02:35:46.873Z,603.00
2024-02-02T02:36:46.844Z,602.00
2024-02-02T02:37:46.842Z,605.00
2024-02-02T02:38:46.846Z,606.00
2024-02-02T02:39:46.846Z,606.00
2024-02-02T02:40:46.851Z,600.00
2024-02-02T02:41:46.844Z,606.00
2024-02-02T02:42:46.857Z,605.00
2024-02-02T02:43:46.879Z,604.00
2024-02-02T02:44:46.849Z,600.00
2024-02-02T02:45:46.859Z,603.00
2024-02-02T02:46:46.853Z,604.00
2024-02-02T02:47:46.944Z,601.00
2024-02-02T02:48:46.953Z,603.00
2024-02-02T02:49:46.941Z,607.00
2024-02-02T02:50:46.904Z,607.00
2024-02-02T02:51:46.913Z,606.00
2024-02-02T02:52:46.939Z,605.00
2024-02-02T02:53:46.954Z,607.00
2024-02-02T02:54:46.975Z,604.00
2024-02-02T02:55:47.003Z,607.00
2024-02-02T02:56:47.001Z,606.00
2024-02-02T02:57:47.027Z,601.00
2024-02-02T02:58:47.035Z,605.00
2024-02-02T02:59:47.053Z,609.00
2024-02-02T03:00:47.073Z,601.00
2024-02-02T03:01:47.093Z,608.00
2024-02-02T03:02:47.098Z,604.00
2024-02-02T03:03:47.218Z,608.00
2024-02-02T03:04:47.147Z,609.00
2024-02-02T03:05:47.145Z,610.00
2024-02-02T03:06:47.264Z,609.00
2024-02-02T03:07:47.184Z,611.00
2024-02-02T03:08:47.242Z,608.00
2024-02-02T03:09:47.223Z,604.00
2024-02-02T03:10:47.227Z,607.00
2024-02-02T03:11:47.252Z,605.00
2024-02-02T03:12:47.259Z,606.00
2024-02-02T03:13:47.270Z,602.00
2024-02-02T03:14:47.311Z,607.00
2024-02-02T03:15:47.315Z,604.00
2024-02-02T03:16:47.344Z,609.00
2024-02-02T03:17:47.402Z,605.00
2024-02-02T03:18:47.509Z,605.00
2024-02-02T03:19:47.477Z,603.00
2024-02-02T03:20:47.395Z,607.00
2024-02-02T03:21:47.434Z,607.00
2024-02-02T03:22:47.436Z,607.00
2024-02-02T03:23:47.441Z,605.00
2024-02-02T03:24:47.461Z,608.00
2024-02-02T03:25:47.490Z,606.00
2024-02-02T03:26:47.492Z,605.00
2024-02-02T03:27:47.508Z,609.00
2024-02-02T03:28:47.531Z,603.00
2024-02-02T03:29:47.645Z,604.00
2024-02-02T03:30:47.607Z,607.00
2024-02-02T03:31:47.631Z,603.00
2024-02-02T03:32:47.743Z,607.00
2024-02-02T03:33:47.776Z,603.00
2024-02-02T03:34:47.724Z,602.00
2024-02-02T03:35:47.683Z,601.00
2024-02-02T03:36:47.683Z,606.00
2024-02-02T03:37:47.735Z,605.00
2024-02-02T03:38:47.723Z,604.00
2024-02-02T03:39:47.744Z,603.00
2024-02-02T03:40:47.761Z,605.00
2024-02-02T03:41:47.781Z,603.00
2024-02-02T03:42:47.812Z,603.00
2024-02-02T03:43:47.845Z,605.00
2024-02-02T03:44:47.840Z,601.00
2024-02-02T03:45:47.859Z,603.00
2024-02-02T03:46:47.862Z,610.00
2024-02-02T03:47:47.897Z,606.00
2024-02-02T03:48:47.982Z,605.00
2024-02-02T03:49:47.957Z,607.00
2024-02-02T03:50:47.958Z,605.00
2024-02-02T03:51:47.947Z,603.00
2024-02-02T03:52:47.973Z,608.00
2024-02-02T03:53:47.987Z,605.00
2024-02-02T03:54:48.020Z,602.00
2024-02-02T03:55:48.048Z,607.00
2024-02-02T03:56:48.037Z,606.00
2024-02-02T03:57:48.092Z,604.00
2024-02-02T03:58:48.088Z,608.00
2024-02-02T03:59:48.121Z,604.00
2024-02-02T04:00:48.244Z,603.00
2024-02-02T04:01:48.217Z,601.00
2024-02-02T04:02:48.203Z,605.00
2024-02-02T04:03:48.264Z,607.00
2024-02-02T04:04:48.216Z,606.00
2024-02-02T04:05:48.315Z,607.00
2024-02-02T04:06:48.286Z,605.00
2024-02-02T04:07:48.295Z,603.00
2024-02-02T04:08:48.323Z,604.00
2024-02-02T04:09:48.322Z,602.00
2024-02-02T04:10:48.346Z,608.00
2024-02-02T04:11:48.362Z,604.00
2024-02-02T04:12:48.400Z,608.00
2024-02-02T04:13:48.411Z,609.00
2024-02-02T04:14:48.436Z,600.00
2024-02-02T04:15:48.495Z,604.00
2024-02-02T04:16:48.474Z,608.00
2024-02-02T04:17:48.535Z,601.00
2024-02-02T04:18:48.647Z,604.00
2024-02-02T04:19:48.633Z,604.00
2024-02-02T04:20:48.594Z,604.00
2024-02-02T04:21:48.568Z,604.00
2024-02-02T04:22:48.580Z,608.00
2024-02-02T04:23:48.612Z,609.00
2024-02-02T04:24:48.620Z,607.00
2024-02-02T04:25:48.643Z,602.00
2024-02-02T04:26:48.690Z,602.00
2024-02-02T04:27:48.677Z,608.00
2024-02-02T04:28:55.868Z,600.00
2024-02-02T04:29:55.904Z,600.00
2024-02-02T04:30:55.855Z,600.00
2024-02-02T04:32:03.041Z,600.00
2024-02-02T04:33:03.103Z,600.00
2024-02-02T04:34:03.171Z,600.00
2024-02-02T04:35:03.048Z,600.00
2024-02-02T04:36:03.068Z,600.00
2024-02-02T04:37:03.044Z,601.00
2024-02-02T04:38:03.069Z,601.00
2024-02-02T04:39:03.086Z,604.00
2024-02-02T04:40:03.046Z,600.00
2024-02-02T04:41:03.042Z,602.00
2024-02-02T04:42:03.100Z,600.00
2024-02-02T04:43:03.065Z,602.00
2024-02-02T04:44:03.042Z,603.00
2024-02-02T04:45:03.068Z,602.00
2024-02-02T04:46:03.051Z,602.00
2024-02-02T04:47:03.074Z,602.00
2024-02-02T04:48:03.156Z,605.00
2024-02-02T04:49:03.362Z,602.00
2024-02-02T04:50:03.059Z,602.00
2024-02-02T04:51:03.101Z,606.00
2024-02-02T04:52:03.059Z,602.00
2024-02-02T04:53:03.063Z,604.00
2024-02-02T04:54:03.111Z,602.00
2024-02-02T04:55:03.113Z,600.00
2024-02-02T04:56:03.068Z,602.00
2024-02-02T04:57:03.091Z,604.00
2024-02-02T04:58:03.079Z,604.00
2024-02-02T04:59:03.070Z,604.00
2024-02-02T05:00:03.210Z,601.00
2024-02-02T05:01:03.067Z,606.00
2024-02-02T05:02:05.924Z,603.00
2024-02-02T05:03:03.090Z,603.00
2024-02-02T05:04:03.695Z,603.00
2024-02-02T05:05:03.229Z,605.00
2024-02-02T05:06:03.098Z,604.00
2024-02-02T05:07:03.078Z,604.00
2024-02-02T05:08:03.105Z,606.00
2024-02-02T05:09:03.111Z,603.00
2024-02-02T05:10:03.100Z,607.00
2024-02-02T05:11:03.091Z,607.00
2024-02-02T05:12:03.089Z,607.00
2024-02-02T05:13:03.108Z,608.00
2024-02-02T05:14:03.149Z,603.00
2024-02-02T05:15:03.143Z,609.00
2024-02-02T05:16:03.082Z,607.00
2024-02-02T05:17:03.091Z,606.00
2024-02-02T05:18:03.193Z,603.00
2024-02-02T05:19:03.153Z,606.00
2024-02-02T05:20:03.098Z,607.00
2024-02-02T05:21:03.144Z,605.00
2024-02-02T05:22:03.097Z,601.00
2024-02-02T05:23:03.104Z,604.00
2024-02-02T05:24:13.485Z,600.00
2024-02-02T05:25:04.115Z,600.00
2024-02-02T05:26:03.127Z,601.00
2024-02-02T05:27:03.152Z,602.00
2024-02-02T05:28:03.108Z,603.00
2024-02-02T05:29:03.098Z,603.00
2024-02-02T05:30:03.158Z,600.00
2024-02-02T05:31:03.122Z,604.00
2024-02-02T05:32:03.099Z,607.00
2024-02-02T05:33:03.180Z,606.00
2024-02-02T05:34:03.216Z,601.00
2024-02-02T05:35:03.395Z,602.00
2024-02-02T05:36:03.212Z,605.00
2024-02-02T05:37:03.258Z,605.00
2024-02-02T05:38:03.349Z,602.00
2024-02-02T05:39:03.419Z,603.00
2024-02-02T05:40:03.432Z,607.00
2024-02-02T05:41:03.495Z,605.00
2024-02-02T05:42:03.677Z,602.00
2024-02-02T05:43:03.616Z,605.00
2024-02-02T05:44:03.661Z,602.00
2024-02-02T05:45:03.757Z,606.00
2024-02-02T05:46:03.805Z,607.00
2024-02-02T05:47:03.862Z,602.00
2024-02-02T05:48:04.062Z,606.00
2024-02-02T05:49:04.031Z,602.00
2024-02-02T05:50:04.144Z,604.00
2024-02-02T05:51:04.285Z,608.00
2024-02-02T05:52:04.301Z,602.00
2024-02-02T05:53:04.307Z,603.00
2024-02-02T05:54:04.409Z,608.00
2024-02-02T05:55:04.468Z,604.00
2024-02-02T05:56:04.517Z,607.00
2024-02-02T05:57:04.593Z,609.00
2024-02-02T05:58:04.652Z,601.00
2024-02-02T05:59:04.720Z,604.00
2024-02-02T06:00:04.918Z,604.00
2024-02-02T06:01:04.892Z,603.00
2024-02-02T06:02:04.932Z,605.00
2024-02-02T06:03:05.089Z,607.00
2024-02-02T06:04:05.168Z,603.00
2024-02-02T06:05:05.136Z,603.00
2024-02-02T06:06:05.290Z,608.00
2024-02-02T06:07:05.364Z,602.00
2024-02-02T06:08:05.349Z,603.00
2024-02-02T06:09:05.558Z,608.00
2024-02-02T06:10:05.488Z,603.00
2024-02-02T06:11:05.549Z,606.00
2024-02-02T06:12:05.711Z,607.00
2024-02-02T06:13:05.686Z,605.00
2024-02-02T06:14:05.780Z,602.00
2024-02-02T06:15:05.842Z,600.00
2024-02-02T06:16:05.877Z,605.00
2024-02-02T06:17:05.919Z,604.00
2024-02-02T06:18:06.063Z,602.00
2024-02-02T06:19:06.125Z,604.00
2024-02-02T06:20:06.144Z,607.00
2024-02-02T06:21:06.179Z,611.00
2024-02-02T06:22:06.209Z,608.00
2024-02-02T06:23:07.197Z,611.00
2024-02-02T06:24:06.365Z,606.00
2024-02-02T06:25:06.474Z,604.00
2024-02-02T06:26:06.429Z,608.00
2024-02-02T06:27:06.564Z,607.00
2024-02-02T06:28:06.572Z,603.00
2024-02-02T06:29:06.577Z,604.00
2024-02-02T06:30:06.709Z,602.00
2024-02-02T06:31:06.799Z,608.00
2024-02-02T06:32:06.749Z,607.00
2024-02-02T06:33:06.881Z,609.00
2024-02-02T06:34:06.958Z,613.00
2024-02-02T06:35:06.993Z,611.00
2024-02-02T06:36:06.995Z,609.00
2024-02-02T06:37:07.002Z,609.00
2024-02-02T06:38:07.115Z,609.00
2024-02-02T06:39:07.193Z,608.00
2024-02-02T06:40:07.144Z,609.00
2024-02-02T06:41:07.172Z,615.00
2024-02-02T06:42:07.234Z,621.00
2024-02-02T06:43:07.243Z,624.00
2024-02-02T06:44:07.279Z,643.00
2024-02-02T06:45:07.385Z,650.00
2024-02-02T06:46:07.325Z,655.00
2024-02-02T06:47:07.357Z,655.00
2024-02-02T06:48:07.420Z,658.00
2024-02-02T06:49:07.415Z,674.00
2024-02-02T06:50:07.422Z,683.00
2024-02-02T06:51:07.509Z,693.00
2024-02-02T06:52:07.455Z,717.00
2024-02-02T06:53:07.747Z,740.00
2024-02-02T06:54:07.576Z,768.00
2024-02-02T06:55:07.640Z,783.00
2024-02-02T06:56:07.746Z,801.00
2024-02-02T06:57:08.700Z,830.00
2024-02-02T06:58:07.824Z,847.00
2024-02-02T06:59:07.884Z,854.00
2024-02-02T07:00:07.995Z,873.00
2024-02-02T07:01:08.080Z,894.00
2024-02-02T07:02:08.031Z,910.00
2024-02-02T07:03:08.188Z,943.00
2024-02-02T07:04:08.294Z,953.00
2024-02-02T07:05:08.189Z,972.00
2024-02-02T07:06:08.339Z,979.00
2024-02-02T07:07:08.315Z,992.00
2024-02-02T07:08:08.297Z,1015.00
2024-02-02T07:09:08.415Z,1026.00
2024-02-02T07:10:08.376Z,1034.00
2024-02-02T07:11:08.397Z,1058.00
2024-02-02T07:12:08.441Z,1059.00
2024-02-02T07:13:08.470Z,1082.00
2024-02-02T07:14:08.485Z,1095.00
2024-02-02T07:15:08.525Z,1104.00
2024-02-02T07:16:08.535Z,1113.00
2024-02-02T07:17:08.555Z,1127.00
2024-02-02T07:18:08.636Z,1131.00
2024-02-02T07:19:08.654Z,1141.00
2024-02-02T07:20:08.661Z,1151.00
2024-02-02T07:21:08.840Z,1157.00
2024-02-02T07:22:08.627Z,1174.00
2024-02-02T07:23:08.634Z,1181.00
2024-02-02T07:24:08.708Z,1197.00
2024-02-02T07:25:08.657Z,1212.00
2024-02-02T07:26:08.687Z,1230.00
2024-02-02T07:27:08.687Z,1245.00
2024-02-02T07:28:08.729Z,1251.00
2024-02-02T07:29:08.717Z,1263.00
2024-02-02T07:30:08.739Z,1288.00
2024-02-02T07:31:08.783Z,1289.00
2024-02-02T07:32:08.821Z,1306.00
2024-02-02T07:33:08.947Z,1326.00
2024-02-02T07:34:09.103Z,1338.00
2024-02-02T07:35:08.996Z,1358.00
2024-02-02T07:36:09.120Z,1379.00
2024-02-02T07:37:09.053Z,1387.00
2024-02-02T07:38:09.125Z,1391.00
2024-02-02T07:39:09.134Z,1403.00
2024-02-02T07:40:09.170Z,1420.00
2024-02-02T07:41:09.178Z,1416.00
2024-02-02T07:42:09.235Z,1431.00
2024-02-02T07:43:09.264Z,1424.00
2024-02-02T07:44:09.223Z,1432.00
2024-02-02T07:45:09.263Z,1435.00
2024-02-02T07:46:11.482Z,1444.00
2024-02-02T07:47:09.282Z,1445.00
2024-02-02T07:48:09.383Z,1448.00
2024-02-02T07:49:09.420Z,1455.00
2024-02-02T07:50:09.297Z,1467.00
2024-02-02T07:51:09.338Z,1471.00
2024-02-02T07:52:09.305Z,1465.00
2024-02-02T07:53:09.727Z,1457.00
2024-02-02T07:54:09.316Z,1435.00
2024-02-02T07:55:09.307Z,1413.00
2024-02-02T07:56:09.332Z,1390.00
2024-02-02T07:57:09.309Z,1377.00
2024-02-02T07:58:09.302Z,1349.00
2024-02-02T07:59:09.332Z,1331.00
2024-02-02T08:00:09.354Z,1320.00
2024-02-02T08:01:09.328Z,1301.00
2024-02-02T08:02:09.302Z,1293.00
2024-02-02T08:03:12.122Z,1291.00
2024-02-02T08:04:09.356Z,1291.00
2024-02-02T08:05:09.470Z,1292.00
2024-02-02T08:06:09.391Z,1287.00
2024-02-02T08:07:09.444Z,1293.00
2024-02-02T08:08:09.757Z,1298.00
2024-02-02T08:09:09.348Z,1298.00
2024-02-02T08:10:09.361Z,1295.00
2024-02-02T08:11:09.333Z,1302.00
2024-02-02T08:12:09.339Z,1309.00
2024-02-02T08:13:10.471Z,1307.00
2024-02-02T08:14:09.317Z,1317.00
2024-02-02T08:15:09.437Z,1330.00
2024-02-02T08:16:09.321Z,1341.00
2024-02-02T08:17:09.346Z,1336.00
2024-02-02T08:18:09.477Z,1349.00
2024-02-02T08:19:09.404Z,1342.00
2024-02-02T08:20:09.399Z,1362.00
2024-02-02T08:21:09.427Z,1378.00
2024-02-02T08:22:09.331Z,1380.00
2024-02-02T08:23:09.329Z,1387.00
2024-02-02T08:24:09.375Z,1390.00
2024-02-02T08:25:09.337Z,1412.00
2024-02-02T08:26:09.344Z,1418.00
2024-02-02T08:27:09.358Z,1431.00
2024-02-02T08:28:09.352Z,1440.00
2024-02-02T08:29:09.354Z,1476.00
2024-02-02T08:30:09.494Z,1491.00
2024-02-02T08:31:09.347Z,1507.00
2024-02-02T08:32:09.364Z,1520.00
2024-02-02T08:33:09.555Z,1519.00
2024-02-02T08:34:09.393Z,1558.00
2024-02-02T08:35:09.366Z,1574.00
2024-02-02T08:36:09.388Z,1576.00
2024-02-02T08:37:09.354Z,1579.00
2024-02-02T08:38:09.385Z,1595.00
2024-02-02T08:39:09.377Z,1594.00
2024-02-02T08:40:09.359Z,1603.00
2024-02-02T08:41:09.356Z,1595.00
2024-02-02T08:42:09.400Z,1597.00
2024-02-02T08:43:09.363Z,1599.00
2024-02-02T08:44:09.385Z,1609.00
2024-02-02T08:45:09.380Z,1604.00
2024-02-02T08:46:09.379Z,1606.00
2024-02-02T08:47:09.396Z,1606.00
2024-02-02T08:48:09.520Z,1613.00
2024-02-02T08:49:09.492Z,1613.00
2024-02-02T08:50:09.440Z,1621.00
2024-02-02T08:51:09.418Z,1610.00
2024-02-02T08:52:09.392Z,1619.00
2024-02-02T08:53:09.408Z,1614.00
2024-02-02T08:54:09.510Z,1614.00
2024-02-02T08:55:09.507Z,1618.00
2024-02-02T08:56:09.475Z,1601.00
2024-02-02T08:57:09.543Z,1607.00
2024-02-02T08:58:09.593Z,1602.00
2024-02-02T08:59:09.599Z,1607.00
2024-02-02T09:00:09.647Z,1593.00
2024-02-02T09:01:09.617Z,1588.00
2024-02-02T09:02:09.635Z,1590.00
2024-02-02T09:03:09.772Z,1586.00
2024-02-02T09:04:09.839Z,1578.00
2024-02-02T09:05:09.708Z,1586.00
2024-02-02T09:06:09.800Z,1574.00
2024-02-02T09:07:09.806Z,1578.00
2024-02-02T09:08:09.781Z,1560.00
2024-02-02T09:09:09.900Z,1557.00
2024-02-02T09:10:10.027Z,1550.00
2024-02-02T09:11:09.891Z,1541.00
2024-02-02T09:12:09.999Z,1540.00
2024-02-02T09:13:09.939Z,1537.00
2024-02-02T09:14:10.136Z,1534.00
2024-02-02T09:15:10.024Z,1522.00
2024-02-02T09:16:10.048Z,1525.00
2024-02-02T09:17:10.048Z,1517.00
2024-02-02T09:18:10.196Z,1500.00
2024-02-02T09:19:10.190Z,1497.00
2024-02-02T09:20:10.201Z,1508.00
2024-02-02T09:21:10.266Z,1494.00
2024-02-02T09:22:10.228Z,1490.00
2024-02-02T09:23:10.274Z,1424.00
2024-02-02T09:24:10.352Z,1383.00
2024-02-02T09:25:10.453Z,1335.00
2024-02-02T09:26:10.425Z,1323.00
2024-02-02T09:27:10.500Z,1245.00
2024-02-02T09:28:10.558Z,1182.00
2024-02-02T09:29:10.750Z,1135.00
2024-02-02T09:30:10.667Z,1078.00
2024-02-02T09:31:10.614Z,1028.00
2024-02-02T09:32:10.772Z,966.00
2024-02-02T09:33:10.866Z,914.00
2024-02-02T09:34:11.379Z,882.00
2024-02-02T09:35:10.859Z,828.00
2024-02-02T09:36:10.927Z,796.00
2024-02-02T09:37:10.884Z,752.00
2024-02-02T09:38:10.923Z,713.00
2024-02-02T09:39:11.148Z,683.00
2024-02-02T09:40:10.931Z,664.00
2024-02-02T09:41:10.976Z,650.00
2024-02-02T09:42:11.068Z,633.00
2024-02-02T09:43:11.298Z,620.00
2024-02-02T09:44:11.015Z,601.00
2024-02-02T09:45:11.125Z,600.00
2024-02-02T09:46:11.132Z,598.00
2024-02-02T09:47:11.225Z,604.00
2024-02-02T09:48:11.438Z,600.00
2024-02-02T09:49:11.446Z,606.00
2024-02-02T09:50:11.719Z,602.00
2024-02-02T09:51:11.371Z,603.00
2024-02-02T09:52:11.362Z,605.00
2024-02-02T09:53:11.362Z,602.00
2024-02-02T09:54:11.424Z,607.00
2024-02-02T09:55:11.395Z,606.00
2024-02-02T09:56:11.454Z,610.00
2024-02-02T09:57:11.478Z,608.00
2024-02-02T09:58:11.433Z,609.00
2024-02-02T09:59:11.420Z,614.00
2024-02-02T10:00:11.435Z,614.00
2024-02-02T10:01:11.489Z,612.00
2024-02-02T10:02:11.436Z,616.00
2024-02-02T10:03:11.473Z,614.00
2024-02-02T10:04:12.789Z,621.00
2024-02-02T10:05:12.119Z,622.00
2024-02-02T10:06:11.750Z,626.00
2024-02-02T10:07:11.533Z,621.00
2024-02-02T10:08:11.493Z,624.00
2024-02-02T10:09:11.569Z,630.00
2024-02-02T10:10:11.514Z,635.00
2024-02-02T10:11:11.544Z,642.00
2024-02-02T10:12:11.664Z,648.00
2024-02-02T10:13:11.677Z,654.00
2024-02-02T10:14:11.779Z,654.00
2024-02-02T10:15:11.874Z,660.00
2024-02-02T10:16:12.031Z,678.00
2024-02-02T10:17:11.965Z,674.00
2024-02-02T10:18:12.116Z,691.00
2024-02-02T10:19:12.200Z,714.00
2024-02-02T10:20:12.195Z,719.00
2024-02-02T10:21:12.293Z,724.00
2024-02-02T10:22:12.306Z,737.00
2024-02-02T10:23:12.404Z,726.00
2024-02-02T10:24:18.168Z,730.00
2024-02-02T10:25:13.413Z,730.00
2024-02-02T10:26:12.395Z,722.00
2024-02-02T10:27:12.422Z,716.00
2024-02-02T10:28:12.501Z,706.00
2024-02-02T10:29:12.451Z,688.00
2024-02-02T10:30:12.458Z,685.00
2024-02-02T10:31:12.404Z,690.00
2024-02-02T10:32:12.402Z,695.00
2024-02-02T10:33:12.956Z,692.00
2024-02-02T10:34:12.563Z,703.00
2024-02-02T10:35:12.415Z,697.00
2024-02-02T10:36:12.452Z,704.00
2024-02-02T10:37:12.451Z,726.00
2024-02-02T10:38:12.815Z,736.00
2024-02-02T10:39:13.791Z,746.00
2024-02-02T10:40:12.635Z,754.00
2024-02-02T10:41:12.708Z,768.00
2024-02-02T10:42:12.801Z,777.00
2024-02-02T10:43:12.837Z,786.00
2024-02-02T10:44:12.905Z,798.00
2024-02-02T10:45:12.974Z,801.00
2024-02-02T10:46:13.027Z,816.00
2024-02-02T10:47:13.086Z,813.00
2024-02-02T10:48:16.502Z,810.00
2024-02-02T10:49:13.283Z,817.00
2024-02-02T10:50:13.230Z,814.00
2024-02-02T10:51:13.160Z,811.00
2024-02-02T10:52:13.150Z,822.00
2024-02-02T10:53:13.139Z,822.00
2024-02-02T10:54:13.193Z,820.00
2024-02-02T10:55:13.154Z,815.00
2024-02-02T10:56:13.144Z,822.00
2024-02-02T10:57:13.188Z,819.00
2024-02-02T10:58:13.163Z,823.00
2024-02-02T10:59:13.193Z,820.00
2024-02-02T11:00:13.185Z,832.00
2024-02-02T11:01:13.334Z,825.00
2024-02-02T11:02:13.158Z,824.00
2024-02-02T11:03:13.256Z,809.00
2024-02-02T11:04:13.303Z,809.00
2024-02-02T11:05:13.163Z,812.00
2024-02-02T11:06:13.264Z,796.00
2024-02-02T11:07:13.256Z,774.00
2024-02-02T11:08:13.184Z,773.00
2024-02-02T11:09:13.184Z,752.00
2024-02-02T11:10:13.173Z,745.00
2024-02-02T11:11:13.163Z,722.00
2024-02-02T11:12:13.206Z,701.00
2024-02-02T11:13:13.172Z,694.00
2024-02-02T11:14:13.200Z,684.00
2024-02-02T11:15:13.226Z,666.00
2024-02-02T11:16:13.181Z,663.00
2024-02-02T11:17:13.198Z,659.00
2024-02-02T11:18:13.255Z,653.00
2024-02-02T11:19:13.250Z,652.00
2024-02-02T11:20:13.173Z,644.00
2024-02-02T11:21:13.227Z,643.00
2024-02-02T11:22:13.176Z,641.00
2024-02-02T11:23:13.206Z,631.00
2024-02-02T11:24:13.278Z,629.00
2024-02-02T11:25:13.212Z,629.00
2024-02-02T11:26:13.200Z,626.00
2024-02-02T11:27:13.231Z,627.00
2024-02-02T11:28:13.204Z,632.00
2024-02-02T11:29:13.388Z,627.00
2024-02-02T11:30:13.212Z,635.00
2024-02-02T11:31:13.219Z,642.00
2024-02-02T11:32:13.268Z,658.00
2024-02-02T11:33:13.500Z,681.00
2024-02-02T11:34:13.875Z,720.00
2024-02-02T11:35:13.428Z,771.00
2024-02-02T11:36:13.508Z,788.00
2024-02-02T11:37:13.564Z,792.00
2024-02-02T11:38:13.674Z,805.00
2024-02-02T11:39:13.724Z,796.00
2024-02-02T11:40:13.779Z,813.00
2024-02-02T11:41:13.838Z,825.00
2024-02-02T11:42:13.889Z,823.00
2024-02-02T11:43:14.344Z,827.00
2024-02-02T11:44:14.013Z,822.00
2024-02-02T11:45:14.102Z,824.00
2024-02-02T11:46:14.106Z,822.00
2024-02-02T11:47:14.177Z,809.00
2024-02-02T11:48:14.337Z,807.00
2024-02-02T11:49:14.449Z,798.00
2024-02-02T11:50:14.408Z,794.00
2024-02-02T11:51:14.486Z,783.00
2024-02-02T11:52:14.473Z,832.00
2024-02-02T11:53:14.601Z,825.00
2024-02-02T11:54:14.622Z,838.00
2024-02-02T11:55:14.684Z,821.00
2024-02-02T11:56:14.719Z,822.00
2024-02-02T11:57:14.829Z,824.00
2024-02-02T11:58:14.903Z,817.00
2024-02-02T11:59:14.928Z,812.00
2024-02-02T12:00:15.012Z,819.00
2024-02-02T12:01:15.086Z,805.00
2024-02-02T12:02:15.133Z,836.00
2024-02-02T12:03:15.250Z,835.00
2024-02-02T12:04:15.297Z,811.00
2024-02-02T12:05:15.389Z,796.00
2024-02-02T12:06:15.466Z,778.00
2024-02-02T12:07:15.530Z,761.00
2024-02-02T12:08:15.672Z,762.00
2024-02-02T12:09:15.897Z,752.00
2024-02-02T12:10:15.676Z,730.00
2024-02-02T12:11:17.289Z,717.00
2024-02-02T12:12:17.369Z,717.00
2024-02-02T12:13:15.759Z,706.00
2024-02-02T12:14:15.759Z,699.00
2024-02-02T12:15:16.078Z,682.00
2024-02-02T12:16:15.769Z,664.00
2024-02-02T12:17:15.765Z,669.00
2024-02-02T12:18:15.919Z,687.00
2024-02-02T12:19:15.997Z,717.00
2024-02-02T12:20:15.903Z,734.00
2024-02-02T12:21:15.867Z,774.00
2024-02-02T12:22:15.883Z,781.00
2024-02-02T12:23:16.361Z,790.00
2024-02-02T12:24:16.058Z,807.00
2024-02-02T12:25:16.122Z,802.00